Time;durP1;ratioP1;P1;durP2;ratioP2;P2;SDS_P1;SDS_P2;PMS_P1;PMS_P2;Temp;Humidity;BMP_temperature;BMP_pressure;BME280_temperature;BME280_humidity;BME280_pressure;Samples;Min_cycle;Max_cycle;Signal;HPM_P1;HPM_P2
2023/11/02 00:01:07;;;;;;;2.90;2.20;;;;;;;6.20;100.00;95812.31;5069289;28;20409;-82
2023/11/02 00:03:35;;;;;;;1.80;1.70;;;;;;;6.19;100.00;95811.53;5084306;28;20424;-81
2023/11/02 00:06:23;;;;;;;2.20;2.00;;;;;;;6.18;100.00;95803.91;5070452;28;20404;-83
2023/11/02 00:09:20;;;;;;;3.65;2.03;;;;;;;6.14;100.00;95787.88;5067885;28;20397;-83
2023/11/02 00:11:50;;;;;;;2.30;1.90;;;;;;;6.12;100.00;95789.19;5067312;28;20423;-82
2023/11/02 00:14:17;;;;;;;3.45;2.00;;;;;;;6.13;100.00;95775.00;5072664;28;20412;-82
2023/11/02 00:16:43;;;;;;;2.10;1.80;;;;;;;6.10;100.00;95770.25;5071001;28;20414;-83
2023/11/02 00:19:17;;;;;;;3.10;2.20;;;;;;;6.08;100.00;95762.66;5069232;28;20409;-83
2023/11/02 00:21:45;;;;;;;3.58;1.90;;;;;;;6.04;100.00;95758.97;5070707;28;20428;-83
2023/11/02 00:24:13;;;;;;;2.05;1.88;;;;;;;6.03;100.00;95754.75;5071980;28;20409;-83
2023/11/02 00:26:41;;;;;;;4.97;2.28;;;;;;;6.03;100.00;95753.97;5073722;28;20469;-82
2023/11/02 00:29:07;;;;;;;2.15;1.80;;;;;;;6.02;100.00;95741.88;5067245;28;20406;-81
2023/11/02 00:31:34;;;;;;;2.30;2.10;;;;;;;6.00;100.00;95731.66;5069356;28;20410;-83
2023/11/02 00:34:00;;;;;;;2.97;2.20;;;;;;;5.99;100.00;95718.78;5067145;28;20396;-82
2023/11/02 00:36:31;;;;;;;3.53;1.97;;;;;;;5.94;100.00;95713.53;5066752;28;20482;-81
2023/11/02 00:38:58;;;;;;;6.27;2.07;;;;;;;5.96;100.00;95709.59;5065225;28;20394;-82
2023/11/02 00:41:26;;;;;;;4.85;2.05;;;;;;;5.98;100.00;95699.63;5063622;28;20434;-81
2023/11/02 00:43:52;;;;;;;2.70;2.20;;;;;;;5.99;100.00;95700.41;5056173;28;20437;-80
2023/11/02 00:46:19;;;;;;;2.28;2.00;;;;;;;6.03;100.00;95688.31;5043707;28;20949;-81
2023/11/02 00:48:45;;;;;;;2.33;2.08;;;;;;;6.05;100.00;95686.22;5043595;28;20399;-79
2023/11/02 00:51:24;;;;;;;2.53;1.90;;;;;;;6.11;100.00;95685.16;5043512;28;20893;-78
2023/11/02 00:53:53;;;;;;;6.38;2.50;;;;;;;6.10;100.00;95681.75;5042909;28;20399;-80
2023/11/02 00:56:21;;;;;;;2.50;2.30;;;;;;;6.17;100.00;95698.03;5043127;28;20744;-79
2023/11/02 00:58:50;;;;;;;3.65;2.25;;;;;;;6.13;100.00;95693.56;5043699;28;20421;-81
2023/11/02 01:01:18;;;;;;;2.90;2.20;;;;;;;6.18;100.00;95689.09;5042447;28;20431;-80
2023/11/02 01:03:51;;;;;;;2.25;2.03;;;;;;;6.21;100.00;95679.91;5040745;28;20415;-81
2023/11/02 01:06:19;;;;;;;3.20;2.20;;;;;;;6.26;100.00;95679.88;5040553;28;20403;-81
2023/11/02 01:08:56;;;;;;;2.83;2.00;;;;;;;6.28;100.00;95674.38;5040385;28;20462;-81
2023/11/02 01:11:33;;;;;;;3.15;2.10;;;;;;;6.32;100.00;95668.31;5041240;28;20782;-82
2023/11/02 01:14:00;;;;;;;2.30;2.03;;;;;;;6.33;100.00;95653.34;5041568;28;20431;-81
2023/11/02 01:16:28;;;;;;;1.98;1.83;;;;;;;6.30;100.00;95643.38;5040805;28;20395;-83
2023/11/02 01:18:56;;;;;;;2.30;2.10;;;;;;;6.29;100.00;95639.97;5041315;28;20392;-81
2023/11/02 01:21:23;;;;;;;2.10;1.90;;;;;;;6.31;100.00;95629.97;5041251;28;20407;-81
2023/11/02 01:24:02;;;;;;;3.30;2.13;;;;;;;6.32;100.00;95613.13;5041113;28;20941;-82
2023/11/02 01:26:59;;;;;;;2.30;2.10;;;;;;;6.32;100.00;95599.19;5042537;28;20434;-83
2023/11/02 01:29:28;;;;;;;2.10;1.85;;;;;;;6.35;100.00;95585.53;5038924;28;20439;-83
2023/11/02 01:31:55;;;;;;;3.35;2.00;;;;;;;6.34;100.00;95584.75;5040502;28;20425;-82
2023/11/02 01:34:23;;;;;;;2.72;1.98;;;;;;;6.33;100.00;95577.13;5061279;28;20582;-82
2023/11/02 01:36:54;;;;;;;4.40;2.40;;;;;;;6.34;100.00;95560.31;5065278;28;20389;-80
2023/11/02 01:39:51;;;;;;;4.00;2.30;;;;;;;6.43;100.00;95558.72;5076307;28;20492;-79
2023/11/02 01:42:37;;;;;;;2.53;1.95;;;;;;;6.53;100.00;95548.16;5061049;28;20417;-82
2023/11/02 01:45:08;;;;;;;4.88;2.22;;;;;;;6.56;100.00;95551.03;5044542;28;20388;-81
2023/11/02 01:47:55;;;;;;;2.58;2.08;;;;;;;6.67;100.00;95554.41;5042031;28;20445;-81
2023/11/02 01:50:31;;;;;;;3.08;2.30;;;;;;;6.75;100.00;95542.53;5043957;28;20953;-80
2023/11/02 01:53:24;;;;;;;2.77;2.00;;;;;;;6.81;100.00;95538.81;5042458;28;20792;-81
2023/11/02 01:56:07;;;;;;;2.90;2.20;;;;;;;6.82;100.00;95535.13;5044407;28;20433;-80
2023/11/02 01:58:42;;;;;;;4.25;2.03;;;;;;;6.89;100.00;95522.47;5043961;28;20613;-81
2023/11/02 02:01:13;;;;;;;3.00;2.10;;;;;;;6.93;100.00;95512.94;5044055;28;20394;-81
2023/11/02 02:03:49;;;;;;;2.25;1.95;;;;;;;6.96;100.00;95513.19;5043902;28;20760;-82
2023/11/02 02:06:23;;;;;;;2.23;2.00;;;;;;;7.00;100.00;95513.44;5044280;28;20395;-82
2023/11/02 02:08:59;;;;;;;4.32;2.60;;;;;;;7.00;100.00;95519.47;5044774;28;20482;-83
2023/11/02 02:11:41;;;;;;;4.55;2.35;;;;;;;6.91;100.00;95510.63;5046934;28;20410;-81
2023/11/02 02:14:25;;;;;;;5.60;2.40;;;;;;;7.03;100.00;95491.06;5048504;28;20406;-82
2023/11/02 02:16:55;;;;;;;2.88;1.85;;;;;;;7.07;100.00;95500.00;5052112;28;20875;-82
2023/11/02 02:19:41;;;;;;;3.33;2.03;;;;;;;7.07;100.00;95494.72;5047484;28;20422;-81
2023/11/02 02:22:13;;;;;;;2.20;2.00;;;;;;;7.10;100.00;95491.53;5047026;28;20445;-81
2023/11/02 02:24:47;;;;;;;2.13;1.80;;;;;;;7.10;100.00;95479.16;5048539;28;20481;-82
2023/11/02 02:27:53;;;;;;;2.10;1.90;;;;;;;7.12;100.00;95474.41;5047982;28;20458;-82
2023/11/02 02:30:43;;;;;;;2.47;1.80;;;;;;;7.12;100.00;95469.16;5048605;28;20399;-82
2023/11/02 02:33:44;;;;;;;2.40;2.20;;;;;;;7.14;100.00;95464.38;5048872;28;20491;-81
2023/11/02 02:36:18;;;;;;;2.22;2.03;;;;;;;7.15;100.00;95457.28;5048810;28;20395;-83
2023/11/02 02:38:49;;;;;;;5.22;2.20;;;;;;;7.12;100.00;95450.75;5050138;28;20431;-82
2023/11/02 02:41:17;;;;;;;2.22;2.03;;;;;;;7.16;100.00;95441.22;5048955;28;20485;-82
2023/11/02 02:43:45;;;;;;;3.47;2.58;;;;;;;7.15;100.00;95420.44;5043379;28;20483;-82
2023/11/02 02:46:15;;;;;;;2.70;2.05;;;;;;;7.14;100.00;95417.03;5028857;28;20388;-82
2023/11/02 02:48:42;;;;;;;2.72;2.40;;;;;;;7.13;100.00;95414.69;5028739;28;20468;-80
2023/11/02 02:51:11;;;;;;;6.30;2.85;;;;;;;7.07;100.00;95419.19;5028656;28;20427;-80
2023/11/02 02:53:39;;;;;;;3.70;2.65;;;;;;;7.07;100.00;95398.16;5030455;28;20397;-82
2023/11/02 02:56:07;;;;;;;3.88;2.97;;;;;;;7.10;100.00;95426.53;5032174;28;20400;-82
2023/11/02 02:58:37;;;;;;;4.32;2.83;;;;;;;7.12;100.00;95421.00;5028222;28;20482;-81
2023/11/02 03:01:07;;;;;;;3.25;2.50;;;;;;;7.13;100.00;95412.84;5028004;28;20401;-82
2023/11/02 03:03:35;;;;;;;3.33;2.45;;;;;;;7.14;100.00;95429.44;5029111;28;20428;-81
2023/11/02 03:06:02;;;;;;;4.10;2.90;;;;;;;7.15;100.00;95371.25;5026637;28;20392;-83
2023/11/02 03:08:31;;;;;;;3.90;2.80;;;;;;;7.19;100.00;95372.28;5028207;28;20404;-83
2023/11/02 03:10:59;;;;;;;4.82;2.70;;;;;;;7.23;100.00;95386.44;5028495;28;20405;-82
2023/11/02 03:13:28;;;;;;;4.70;2.90;;;;;;;7.25;100.00;95391.41;5027655;28;20397;-80
2023/11/02 03:16:00;;;;;;;4.47;2.97;;;;;;;7.31;100.00;95424.50;5026960;28;20412;-82
2023/11/02 03:18:33;;;;;;;4.10;3.13;;;;;;;7.27;100.00;95420.88;5025931;28;20399;-81
2023/11/02 03:21:00;;;;;;;3.45;2.75;;;;;;;7.29;100.00;95389.81;5026012;28;20409;-81
2023/11/02 03:23:36;;;;;;;2.75;2.45;;;;;;;7.34;100.00;95408.19;5021654;28;20417;-81
2023/11/02 03:26:13;;;;;;;2.88;2.53;;;;;;;7.36;100.00;95414.75;5022395;28;20448;-81
2023/11/02 03:28:48;;;;;;;3.03;2.50;;;;;;;7.37;100.00;95391.81;5022119;28;20393;-81
2023/11/02 03:31:31;;;;;;;3.28;2.30;;;;;;;7.37;100.00;95382.06;5022245;28;20484;-81
2023/11/02 03:34:06;;;;;;;2.58;2.22;;;;;;;7.36;100.00;95364.72;5056040;28;20409;-80
2023/11/02 03:36:46;;;;;;;2.30;2.10;;;;;;;7.36;100.00;95380.53;5062438;28;20402;-81
2023/11/02 03:39:22;;;;;;;5.28;2.85;;;;;;;7.31;100.00;95377.13;5062198;28;20405;-82
2023/11/02 03:42:03;;;;;;;4.63;3.05;;;;;;;7.23;100.00;95381.16;5062100;28;20460;-82
2023/11/02 03:44:39;;;;;;;4.30;2.80;;;;;;;7.21;100.00;95377.25;5063658;28;20396;-82
2023/11/02 03:47:19;;;;;;;3.55;2.97;;;;;;;7.21;100.00;95372.00;5065196;28;20393;-83
2023/11/02 03:49:56;;;;;;;3.03;2.40;;;;;;;7.17;100.00;95358.59;5063366;28;20462;-82
2023/11/02 03:52:32;;;;;;;5.55;3.20;;;;;;;7.13;100.00;95341.03;5077057;28;20413;-83
2023/11/02 03:55:31;;;;;;;3.90;2.95;;;;;;;7.11;100.00;95301.06;5060928;28;20420;-83
2023/11/02 03:58:04;;;;;;;4.70;2.70;;;;;;;7.09;100.00;95292.66;5066119;28;20382;-82
2023/11/02 04:00:40;;;;;;;3.22;2.60;;;;;;;7.08;100.00;95276.09;5059188;28;20398;-82
2023/11/02 04:03:10;;;;;;;4.07;3.13;;;;;;;7.06;100.00;95261.66;5059433;28;20413;-82
2023/11/02 04:05:40;;;;;;;4.03;3.00;;;;;;;7.05;100.00;95262.72;5059689;28;20461;-82
2023/11/02 04:08:16;;;;;;;3.83;3.10;;;;;;;7.03;100.00;95264.84;5063212;28;20401;-82
2023/11/02 04:10:55;;;;;;;6.07;3.58;;;;;;;7.00;100.00;95242.50;5060815;28;21161;-82
2023/11/02 04:13:26;;;;;;;5.72;3.40;;;;;;;7.00;100.00;95214.34;5063199;28;20404;-82
2023/11/02 04:15:52;;;;;;;3.33;2.75;;;;;;;7.00;100.00;95187.25;5064350;28;20393;-81
2023/11/02 04:18:19;;;;;;;5.53;3.40;;;;;;;6.99;100.00;95167.31;5060551;28;20924;-83
2023/11/02 04:20:51;;;;;;;5.90;3.50;;;;;;;6.98;100.00;95157.84;5074626;28;20413;-82
2023/11/02 04:23:18;;;;;;;6.18;3.58;;;;;;;6.96;100.00;95166.03;5059855;28;20447;-81
2023/11/02 04:25:46;;;;;;;5.73;3.50;;;;;;;6.95;100.00;95148.66;5060189;28;20394;-82
2023/11/02 04:28:12;;;;;;;5.07;3.20;;;;;;;6.95;100.00;95146.03;5060347;28;20476;-81
2023/11/02 04:30:38;;;;;;;5.38;3.40;;;;;;;6.95;100.00;95132.91;5059267;28;20457;-81
2023/11/02 04:33:05;;;;;;;4.70;3.00;;;;;;;6.97;100.00;95127.34;5066490;28;20428;-82
2023/11/02 04:35:31;;;;;;;4.45;2.80;;;;;;;6.98;100.00;95124.44;5067946;28;20398;-81
2023/11/02 04:38:05;;;;;;;4.63;3.43;;;;;;;7.00;100.00;95127.56;5067530;28;20408;-82
2023/11/02 04:40:32;;;;;;;10.20;4.35;;;;;;;7.00;100.00;95114.41;5066738;28;20393;-82
2023/11/02 04:43:00;;;;;;;5.65;3.50;;;;;;;7.03;100.00;95115.69;5068207;28;20596;-82
2023/11/02 04:45:26;;;;;;;6.00;4.10;;;;;;;7.03;100.00;95113.06;5047924;28;20437;-83
2023/11/02 04:47:53;;;;;;;6.53;4.30;;;;;;;7.00;100.00;95100.47;5044794;28;20415;-82
2023/11/02 04:50:20;;;;;;;8.18;4.60;;;;;;;7.02;100.00;95108.88;5046461;28;20403;-84
2023/11/02 04:52:46;;;;;;;6.68;3.97;;;;;;;7.04;100.00;95095.44;5048034;28;20490;-83
2023/11/02 04:55:12;;;;;;;6.85;3.90;;;;;;;7.07;100.00;95110.66;5049794;28;20407;-83
2023/11/02 04:57:38;;;;;;;7.67;4.20;;;;;;;7.09;100.00;95100.63;5044840;28;20751;-82
2023/11/02 05:00:08;;;;;;;6.00;4.00;;;;;;;7.09;100.00;95076.94;5043637;28;20481;-82
2023/11/02 05:02:34;;;;;;;5.32;3.55;;;;;;;7.10;100.00;95066.16;5042707;28;20415;-81
2023/11/02 05:05:01;;;;;;;8.35;3.95;;;;;;;7.10;100.00;95096.94;5043872;28;20411;-82
2023/11/02 05:07:27;;;;;;;6.72;3.97;;;;;;;7.16;100.00;95090.53;5043794;28;20395;-81
2023/11/02 05:09:53;;;;;;;7.13;3.75;;;;;;;7.12;100.00;95071.91;5044302;28;20402;-79
2023/11/02 05:12:19;;;;;;;6.43;3.80;;;;;;;7.16;100.00;95057.09;5045621;28;20403;-83
2023/11/02 05:14:45;;;;;;;7.10;3.50;;;;;;;7.14;100.00;95035.56;5047929;28;20442;-83
2023/11/02 05:17:13;;;;;;;4.43;3.13;;;;;;;7.14;100.00;95035.56;5043991;28;20395;-81
2023/11/02 05:19:39;;;;;;;7.10;3.05;;;;;;;7.13;100.00;95018.22;5044942;28;20751;-83
2023/11/02 05:22:06;;;;;;;5.38;3.42;;;;;;;7.12;100.00;95024.56;5044063;28;20481;-82
2023/11/02 05:24:32;;;;;;;6.30;3.40;;;;;;;7.09;100.00;95001.44;5039812;28;20856;-82
2023/11/02 05:26:58;;;;;;;7.80;3.00;;;;;;;7.07;100.00;94993.06;5043772;28;20800;-85
2023/11/02 05:29:25;;;;;;;6.63;3.63;;;;;;;7.05;100.00;94973.38;5041873;28;20881;-85
2023/11/02 05:31:51;;;;;;;5.43;3.20;;;;;;;7.08;100.00;94964.91;5041771;28;20942;-84
2023/11/02 05:34:19;;;;;;;4.18;2.90;;;;;;;7.10;100.00;94963.56;5041882;28;20486;-83
2023/11/02 05:36:47;;;;;;;3.63;2.85;;;;;;;7.12;100.00;94950.91;5043460;28;20402;-84
2023/11/02 05:39:13;;;;;;;5.47;2.63;;;;;;;7.14;100.00;94943.47;5041530;28;20792;-83
2023/11/02 05:41:39;;;;;;;4.50;2.80;;;;;;;7.13;100.00;94939.31;5024453;28;20423;-83
2023/11/02 05:44:06;;;;;;;3.45;2.72;;;;;;;7.18;100.00;94938.44;5024472;28;20479;-82
2023/11/02 05:46:32;;;;;;;4.87;2.60;;;;;;;7.19;100.00;94943.41;5024846;28;20400;-82
2023/11/02 05:48:58;;;;;;;3.03;2.67;;;;;;;7.23;100.00;94943.59;5032621;28;20405;-83
2023/11/02 05:51:25;;;;;;;4.30;2.70;;;;;;;7.24;100.00;94935.44;5034505;28;20489;-80
2023/11/02 05:53:51;;;;;;;3.33;2.20;;;;;;;7.26;100.00;94938.56;5030339;28;20401;-81
2023/11/02 05:56:18;;;;;;;3.00;2.30;;;;;;;7.29;100.00;94959.00;5031347;28;20401;-82
2023/11/02 05:58:46;;;;;;;2.40;2.15;;;;;;;7.35;100.00;94972.88;5023470;28;20399;-82
2023/11/02 06:01:13;;;;;;;4.68;2.55;;;;;;;7.36;100.00;94988.38;5029194;28;20435;-82
2023/11/02 06:03:39;;;;;;;2.58;2.20;;;;;;;7.36;100.00;94996.28;5042603;28;20415;-80
2023/11/02 06:06:06;;;;;;;4.82;2.50;;;;;;;7.35;100.00;95025.50;5044862;28;20401;-83
2023/11/02 06:08:34;;;;;;;3.65;2.45;;;;;;;7.34;100.00;95034.47;5042795;28;20447;-83
2023/11/02 06:11:00;;;;;;;2.50;2.25;;;;;;;7.34;100.00;95043.16;5028910;28;20909;-81
2023/11/02 06:13:26;;;;;;;2.38;2.17;;;;;;;7.29;100.00;95061.63;5028876;28;20401;-84
2023/11/02 06:15:52;;;;;;;4.90;2.30;;;;;;;7.26;100.00;95078.00;5029655;28;20491;-82
2023/11/02 06:18:18;;;;;;;4.22;2.28;;;;;;;7.23;100.00;95093.56;5029312;28;20408;-81
2023/11/02 06:20:44;;;;;;;12.80;2.87;;;;;;;7.19;100.00;95098.63;5033961;28;20416;-80
2023/11/02 06:23:11;;;;;;;5.40;2.42;;;;;;;7.18;100.00;95098.91;5032736;28;20420;-81
2023/11/02 06:25:38;;;;;;;4.90;2.45;;;;;;;7.16;100.00;95103.69;5031432;28;20397;-81
2023/11/02 06:28:05;;;;;;;2.70;2.20;;;;;;;7.15;100.00;95099.47;5032925;28;20417;-82
2023/11/02 06:30:31;;;;;;;2.87;2.20;;;;;;;7.15;100.00;95107.38;5025631;28;20413;-81
2023/11/02 06:33:01;;;;;;;3.47;2.28;;;;;;;7.15;100.00;95102.09;5041734;28;20398;-82
2023/11/02 06:35:27;;;;;;;2.43;1.90;;;;;;;7.16;100.00;95090.53;5036563;28;20458;-82
2023/11/02 06:37:57;;;;;;;4.07;2.20;;;;;;;7.19;100.00;95096.00;5043435;28;20431;-82
2023/11/02 06:40:23;;;;;;;8.43;2.22;;;;;;;7.20;100.00;95108.09;5042904;28;20430;-82
2023/11/02 06:42:51;;;;;;;2.33;1.90;;;;;;;7.21;100.00;95098.38;5042610;28;20445;-82
2023/11/02 06:45:18;;;;;;;2.65;2.08;;;;;;;7.21;100.00;95090.47;5030438;28;20397;-80
2023/11/02 06:47:44;;;;;;;2.15;1.75;;;;;;;7.23;100.00;95075.16;5035192;28;20452;-80
2023/11/02 06:50:10;;;;;;;2.10;1.70;;;;;;;7.26;100.00;95061.44;5035033;28;20394;-80
2023/11/02 06:52:36;;;;;;;2.65;1.90;;;;;;;7.28;100.00;95056.69;5031381;28;20411;-80
2023/11/02 06:55:03;;;;;;;2.80;1.70;;;;;;;7.30;100.00;95047.41;5029054;28;20436;-79
2023/11/02 06:57:29;;;;;;;2.10;1.57;;;;;;;7.32;100.00;95050.53;5030935;28;20415;-81
2023/11/02 06:59:57;;;;;;;2.22;1.75;;;;;;;7.33;100.00;95053.97;5034760;28;20423;-80
2023/11/02 07:02:23;;;;;;;2.50;1.90;;;;;;;7.30;100.00;95055.31;5026332;28;20499;-81
2023/11/02 07:04:55;;;;;;;5.45;2.10;;;;;;;7.29;100.00;95052.97;5022027;28;20405;-81
2023/11/02 07:07:21;;;;;;;2.37;2.00;;;;;;;7.30;100.00;95055.31;5022141;28;20443;-81
2023/11/02 07:09:48;;;;;;;3.00;2.40;;;;;;;7.28;100.00;95049.56;5022468;28;20400;-81
2023/11/02 07:12:14;;;;;;;3.80;2.15;;;;;;;7.27;100.00;95044.59;5028355;28;20411;-81
2023/11/02 07:14:42;;;;;;;2.38;2.00;;;;;;;7.29;100.00;95037.19;5027121;28;20478;-81
2023/11/02 07:17:10;;;;;;;3.40;2.03;;;;;;;7.31;100.00;95035.03;5032002;28;20406;-79
2023/11/02 07:19:36;;;;;;;3.53;1.80;;;;;;;7.33;100.00;95038.94;5038579;28;20482;-81
2023/11/02 07:22:02;;;;;;;2.28;1.90;;;;;;;7.35;100.00;95030.78;5043900;28;20399;-81
2023/11/02 07:24:28;;;;;;;3.53;2.10;;;;;;;7.35;100.00;95023.66;5039931;28;20795;-81
2023/11/02 07:26:54;;;;;;;3.17;2.17;;;;;;;7.35;100.00;95020.25;5028211;28;20450;-82
2023/11/02 07:29:21;;;;;;;2.42;2.00;;;;;;;7.35;100.00;95017.63;5020919;28;20408;-82
2023/11/02 07:31:47;;;;;;;2.70;2.20;;;;;;;7.35;100.00;95021.03;5020701;28;20450;-82
2023/11/02 07:34:14;;;;;;;3.10;2.20;;;;;;;7.38;100.00;95017.03;5020719;28;20412;-82
2023/11/02 07:36:40;;;;;;;3.90;2.40;;;;;;;7.38;100.00;95009.91;5038401;28;20428;-79
2023/11/02 07:39:08;;;;;;;4.83;2.60;;;;;;;7.39;100.00;95002.81;5033584;28;20435;-80
2023/11/02 07:41:34;;;;;;;4.78;2.63;;;;;;;7.38;100.00;94993.34;5027681;28;20405;-80
2023/11/02 07:44:00;;;;;;;3.42;2.53;;;;;;;7.39;100.00;94990.44;5031008;28;20415;-80
2023/11/02 07:46:27;;;;;;;4.82;2.83;;;;;;;7.41;100.00;94976.97;5041777;28;20397;-80
2023/11/02 07:48:53;;;;;;;6.20;3.10;;;;;;;7.39;100.00;94969.38;5029669;28;20407;-80
2023/11/02 07:51:22;;;;;;;4.97;3.20;;;;;;;7.38;100.00;94964.41;5031556;28;20421;-79
2023/11/02 07:53:48;;;;;;;8.75;3.90;;;;;;;7.37;100.00;94952.31;5041006;28;20741;-80
2023/11/02 07:56:14;;;;;;;4.93;3.10;;;;;;;7.37;100.00;94955.72;5024809;28;20401;-82
2023/11/02 07:58:42;;;;;;;5.03;2.85;;;;;;;7.43;100.00;94950.38;5035178;28;20399;-84
2023/11/02 08:01:08;;;;;;;4.85;3.03;;;;;;;7.47;100.00;94952.13;5030233;28;20400;-84
2023/11/02 08:03:34;;;;;;;5.40;3.00;;;;;;;7.50;100.00;94940.25;5034472;28;20532;-85
2023/11/02 08:06:01;;;;;;;10.73;4.10;;;;;;;7.49;100.00;94950.00;5038567;28;20707;-84
2023/11/02 08:08:28;;;;;;;7.20;3.90;;;;;;;7.48;100.00;94952.91;5040090;28;20405;-84
2023/11/02 08:10:56;;;;;;;9.13;4.50;;;;;;;7.44;100.00;94941.41;5023095;28;20405;-84
2023/11/02 08:13:22;;;;;;;7.03;3.40;;;;;;;7.46;100.00;94932.16;5021857;28;20763;-85
2023/11/02 08:15:48;;;;;;;4.85;3.20;;;;;;;7.47;100.00;94928.44;5038972;28;20879;-83
2023/11/02 08:18:14;;;;;;;6.07;3.38;;;;;;;7.49;100.00;94933.44;5037076;28;20783;-84
2023/11/02 08:20:40;;;;;;;6.57;3.47;;;;;;;7.51;100.00;94932.06;5038135;28;20435;-83
2023/11/02 08:23:06;;;;;;;7.30;3.60;;;;;;;7.52;100.00;94932.84;5025124;28;20414;-84
2023/11/02 08:25:34;;;;;;;18.05;5.05;;;;;;;7.51;100.00;94947.88;5038700;28;20401;-81
2023/11/02 08:28:01;;;;;;;12.18;4.53;;;;;;;7.50;100.00;94924.47;5021862;28;20397;-82
2023/11/02 08:30:29;;;;;;;15.25;5.53;;;;;;;7.49;100.00;94928.16;5020023;28;20526;-84
2023/11/02 08:32:55;;;;;;;12.87;6.03;;;;;;;7.48;100.00;94926.59;5028091;28;20407;-85
2023/11/02 08:35:22;;;;;;;8.55;4.80;;;;;;;7.47;100.00;94915.28;5031826;28;20486;-84
2023/11/02 08:37:49;;;;;;;15.85;5.90;;;;;;;7.47;100.00;94928.44;5028271;28;20405;-85
2023/11/02 08:40:18;;;;;;;9.10;5.00;;;;;;;7.47;100.00;94927.66;5020120;28;20393;-85
2023/11/02 08:42:46;;;;;;;12.90;5.25;;;;;;;7.49;100.00;94917.63;5034494;28;20425;-83
2023/11/02 08:45:13;;;;;;;13.13;6.00;;;;;;;7.50;100.00;94906.03;5023660;28;20441;-83
2023/11/02 08:47:39;;;;;;;17.08;6.25;;;;;;;7.51;100.00;94904.97;5019986;28;20404;-83
2023/11/02 08:50:08;;;;;;;8.73;4.85;;;;;;;7.52;100.00;94899.38;5036231;28;20399;-85
2023/11/02 08:52:34;;;;;;;9.37;4.70;;;;;;;7.56;100.00;94889.06;5035458;28;20418;-84
2023/11/02 08:55:00;;;;;;;7.40;4.15;;;;;;;7.61;100.00;94900.28;5033343;28;20406;-85
2023/11/02 08:57:26;;;;;;;6.47;3.70;;;;;;;7.66;100.00;94897.56;5034151;28;20419;-85
2023/11/02 08:59:54;;;;;;;6.50;3.70;;;;;;;7.69;100.00;94893.53;5048559;28;20771;-84
2023/11/02 09:02:20;;;;;;;7.45;3.97;;;;;;;7.70;100.00;94895.09;5037076;28;20938;-85
2023/11/02 09:04:47;;;;;;;8.73;4.53;;;;;;;7.70;100.00;94898.53;5038762;28;20406;-85
2023/11/02 09:07:13;;;;;;;6.25;3.97;;;;;;;7.72;100.00;94895.59;5039268;28;20395;-84
2023/11/02 09:09:39;;;;;;;9.87;4.70;;;;;;;7.73;100.00;94890.06;5027799;28;20492;-84
2023/11/02 09:12:05;;;;;;;7.18;3.90;;;;;;;7.81;100.00;94885.16;5021992;28;20404;-83
2023/11/02 09:14:32;;;;;;;6.70;3.95;;;;;;;7.90;100.00;94870.22;5033954;28;20403;-85
2023/11/02 09:17:00;;;;;;;5.72;3.42;;;;;;;7.96;100.00;94876.97;5044824;28;20748;-84
2023/11/02 09:19:26;;;;;;;4.15;3.20;;;;;;;7.99;100.00;94882.41;5028137;28;20400;-85
2023/11/02 09:21:52;;;;;;;6.75;3.80;;;;;;;8.00;100.00;94885.81;5037045;28;20453;-82
2023/11/02 09:24:19;;;;;;;6.95;3.85;;;;;;;8.00;100.00;94885.81;5033200;28;20443;-84
2023/11/02 09:26:45;;;;;;;6.32;3.80;;;;;;;8.01;100.00;94890.00;5026733;28;20400;-83
2023/11/02 09:29:12;;;;;;;6.53;3.50;;;;;;;8.02;100.00;94899.47;5023001;28;20404;-84
2023/11/02 09:31:39;;;;;;;7.55;3.92;;;;;;;7.99;100.00;94903.47;5019006;28;20401;-84
2023/11/02 09:34:09;;;;;;;7.60;3.85;;;;;;;7.98;100.00;94919.56;5022370;28;20395;-85
2023/11/02 09:36:36;;;;;;;7.80;3.45;;;;;;;7.96;100.00;94930.41;5039854;28;20736;-85
2023/11/02 09:39:03;;;;;;;7.40;3.20;;;;;;;7.94;100.00;94943.09;5038945;28;20461;-83
2023/11/02 09:41:29;;;;;;;5.45;3.00;;;;;;;7.98;100.00;94951.19;5037840;28;20406;-85
2023/11/02 09:43:56;;;;;;;4.22;2.90;;;;;;;8.01;100.00;94953.22;5039325;28;20419;-84
2023/11/02 09:46:23;;;;;;;3.13;2.50;;;;;;;8.05;100.00;94947.06;5032828;28;20404;-84
2023/11/02 09:48:49;;;;;;;4.10;2.50;;;;;;;8.14;100.00;94955.06;5046893;28;20394;-85
2023/11/02 09:51:17;;;;;;;4.50;2.40;;;;;;;8.20;100.00;94948.63;5046354;28;20424;-84
2023/11/02 09:53:43;;;;;;;4.07;2.60;;;;;;;8.27;100.00;94951.63;5044712;28;20491;-84
2023/11/02 09:56:10;;;;;;;2.72;2.30;;;;;;;8.33;100.00;94950.50;5026805;28;20408;-84
2023/11/02 09:58:36;;;;;;;5.03;2.35;;;;;;;8.39;100.00;94951.16;5025014;28;20405;-83
2023/11/02 10:01:04;;;;;;;4.55;2.30;;;;;;;8.40;100.00;94942.19;5021289;28;20401;-85
2023/11/02 10:03:30;;;;;;;2.92;2.05;;;;;;;8.43;100.00;94945.00;5025171;28;20453;-85
2023/11/02 10:05:57;;;;;;;2.13;1.88;;;;;;;8.47;100.00;94937.28;5034998;28;20404;-85
2023/11/02 10:08:24;;;;;;;1.88;1.60;;;;;;;8.50;100.00;94945.38;5017142;28;20405;-85
2023/11/02 10:10:51;;;;;;;3.38;1.88;;;;;;;8.53;100.00;94933.47;5022448;28;20401;-85
2023/11/02 10:13:18;;;;;;;3.58;2.20;;;;;;;8.54;100.00;94942.94;5023315;28;20400;-84
2023/11/02 10:15:45;;;;;;;3.05;1.55;;;;;;;8.55;100.00;94933.94;5033481;28;20397;-85
2023/11/02 10:18:15;;;;;;;2.35;1.80;;;;;;;8.58;100.00;94925.41;5032631;28;20399;-83
2023/11/02 10:20:42;;;;;;;2.40;1.70;;;;;;;8.59;100.00;94913.81;5038538;28;20403;-84
2023/11/02 10:23:14;;;;;;;3.65;1.73;;;;;;;8.63;100.00;94911.38;5024206;28;20427;-83
2023/11/02 10:25:42;;;;;;;3.80;1.60;;;;;;;8.64;100.00;94900.53;5027019;28;20456;-84
2023/11/02 10:28:12;;;;;;;2.60;1.70;;;;;;;8.66;100.00;94897.56;5035799;28;20404;-83
2023/11/02 10:30:38;;;;;;;3.70;2.05;;;;;;;8.66;100.00;94892.28;5041583;28;20389;-82
2023/11/02 10:33:06;;;;;;;3.90;1.70;;;;;;;8.69;100.00;94884.56;5036124;28;20408;-83
2023/11/02 10:35:32;;;;;;;3.43;1.80;;;;;;;8.73;100.00;94888.16;5028903;28;20402;-81
2023/11/02 10:37:59;;;;;;;4.03;1.75;;;;;;;8.74;100.00;94876.53;5032783;28;20449;-83
2023/11/02 10:40:43;;;;;;;3.38;1.77;;;;;;;8.78;100.00;94880.13;5034396;28;20404;-85
2023/11/02 10:43:16;;;;;;;4.95;1.65;;;;;;;8.85;100.00;94871.81;5030374;28;20415;-85
2023/11/02 10:45:48;;;;;;;2.50;1.50;;;;;;;8.94;100.00;94851.53;5038000;28;20596;-84
2023/11/02 10:48:17;;;;;;;4.53;1.50;;;;;;;8.99;100.00;94850.63;5030241;28;20393;-80
2023/11/02 10:50:46;;;;;;;2.78;1.70;;;;;;;9.02;100.00;94848.13;5032898;28;20712;-81
2023/11/02 10:53:20;;;;;;;2.85;1.50;;;;;;;9.04;100.00;94840.69;5044782;28;20407;-80
2023/11/02 10:55:52;;;;;;;3.45;1.42;;;;;;;9.05;100.00;94837.00;5039235;28;20389;-80
2023/11/02 10:58:20;;;;;;;2.92;1.30;;;;;;;9.04;100.00;94845.19;5037156;28;20393;-80
2023/11/02 11:00:50;;;;;;;3.65;1.48;;;;;;;8.93;100.00;94845.47;5040056;28;20402;-80
2023/11/02 11:03:17;;;;;;;7.87;1.90;;;;;;;8.87;100.00;94843.28;5037604;28;20454;-79
2023/11/02 11:05:45;;;;;;;2.08;1.38;;;;;;;8.90;100.00;94834.75;5034117;28;20405;-81
2023/11/02 11:08:12;;;;;;;1.77;1.20;;;;;;;8.89;100.00;94839.22;5033878;28;20407;-80
2023/11/02 11:10:40;;;;;;;3.50;1.40;;;;;;;8.85;100.00;94835.66;5044173;28;20510;-79
2023/11/02 11:13:10;;;;;;;3.95;1.40;;;;;;;8.80;100.00;94848.16;5058224;28;20418;-80
2023/11/02 11:15:36;;;;;;;3.38;1.20;;;;;;;8.77;100.00;94857.47;5037434;28;20425;-79
2023/11/02 11:18:06;;;;;;;2.63;1.30;;;;;;;8.80;100.00;94846.31;5042138;28;20768;-80
2023/11/02 11:20:32;;;;;;;1.75;1.30;;;;;;;8.88;100.00;94839.53;5038659;28;20403;-80
2023/11/02 11:22:59;;;;;;;1.67;1.05;;;;;;;8.99;100.00;94848.75;5037578;28;20467;-80
2023/11/02 11:25:25;;;;;;;2.88;1.30;;;;;;;9.02;100.00;94836.84;5041387;28;20427;-80
2023/11/02 11:27:52;;;;;;;1.25;1.10;;;;;;;9.04;100.00;94839.94;5035689;28;20401;-81
2023/11/02 11:30:36;;;;;;;5.50;1.20;;;;;;;8.98;100.00;94843.78;5030855;28;20423;-80
2023/11/02 11:33:03;;;;;;;1.92;1.10;;;;;;;8.99;100.00;94837.44;5036648;28;20439;-79
2023/11/02 11:35:29;;;;;;;5.45;1.40;;;;;;;8.93;100.00;94834.16;5038858;28;20405;-80
2023/11/02 11:37:57;;;;;;;1.50;1.30;;;;;;;8.89;100.00;94836.59;5040313;28;21281;-80
2023/11/02 11:40:36;;;;;;;3.03;1.30;;;;;;;8.91;100.00;94831.81;5033047;28;20818;-79
2023/11/02 11:43:05;;;;;;;2.08;1.27;;;;;;;8.90;100.00;94819.69;5038326;28;20433;-80
2023/11/02 11:45:34;;;;;;;2.35;1.38;;;;;;;8.88;100.00;94815.78;5042622;28;20418;-83